MSC Flavia — 3FBD7 — position and weather

sailwx.info

Track history (hours):
 
Tides and Currents Weather Stations Pressure Air Temp Water Temp Dewpoint Dewpoint Depression Visibility Wind Speed Wind Dir Waves Ship Positions

MSC Flavia

Last reported at 2015-Mar-31 01:33 UTC. Time now 2015-Mar-31 02:09 UTC.
Position N 29°43' E 122°37'.

Length 366 m; draft 9 m.

Type: Ship (hazmat cat A). MMSI: 373004000.

Date/timePositionNaut miles runAvg speedWind from/ knotsBaromVisibWave heightAir tempDewpointWater temp
2015-Mar-31 01:33N 29°43' E 122°37'5 4.8
2015-Mar-31 00:33N 29°43' E 122°43'25212.5
2015-Mar-30 04:26N 25°44' E 121°13'2016.7
2015-Mar-30 03:15N 25°28' E 121°00'1920.4
2015-Mar-30 02:21N 25°12' E 120°48'3720.1
2015-Mar-30 00:31N 24°43' E 120°25'4619.6
2015-Mar-29 22:08N 24°05' E 119°55'4021.4
2015-Mar-29 20:16N 23°25' E 119°51'1420.1
2015-Mar-29 19:33N 23°11' E 119°47'16918.8
2015-Mar-29 10:33N 22°06' E 116°57'17317.2
2015-Mar-29 00:30N 22°05' E 113°51'1112.2
2015-Mar-28 23:33N 22°16' E 113°48'1211.7
2015-Mar-28 22:33N 22°27' E 113°52'1 0.9
2015-Mar-28 21:28N 22°28' E 113°53'0 0.0
2015-Mar-28 20:28N 22°28' E 113°53'0 0.0
2015-Mar-28 19:28N 22°28' E 113°53'0 0.0
2015-Mar-28 18:28N 22°28' E 113°53'0 0.0
2015-Mar-28 17:22N 22°28' E 113°53'0 0.0
2015-Mar-28 16:28N 22°28' E 113°53'0 0.0
2015-Mar-28 15:28N 22°28' E 113°53'0 0.0
2015-Mar-28 14:28N 22°28' E 113°53'0 0.0
2015-Mar-28 13:28N 22°28' E 113°53'0 0.0
2015-Mar-28 12:28N 22°28' E 113°53'0 0.0
2015-Mar-28 11:28N 22°28' E 113°53'0 0.0
2015-Mar-28 10:22N 22°28' E 113°53'0 0.0
2015-Mar-28 09:28N 22°28' E 113°53'0 0.0
2015-Mar-28 08:28N 22°28' E 113°53'0 0.0
2015-Mar-28 07:28N 22°28' E 113°53'0 0.0
2015-Mar-28 06:28N 22°28' E 113°53'0 0.0
2015-Mar-28 05:28N 22°28' E 113°53'0 0.0
2015-Mar-28 03:28N 22°28' E 113°53'0 0.0
2015-Mar-28 02:33N 22°28' E 113°53'5 5.1
2015-Mar-28 01:33N 22°23' E 113°50'10 9.8
2015-Mar-28 00:33N 22°13' E 113°49'5 2.3
2015-Mar-27 22:33N 22°09' E 113°50'1212.4
2015-Mar-27 21:34N 22°21' E 113°48'1413.4
2015-Mar-27 20:33N 22°34' E 113°43'5 0.4
2015-Mar-27 07:26N 22°38' E 113°41'9 8.8
2015-Mar-27 06:28N 22°30' E 113°45'1213.3
2015-Mar-27 05:33N 22°18' E 113°48'1212.3
2015-Mar-27 04:33N 22°06' E 113°51'9 7.9
2015-Mar-27 03:25N 21°58' E 113°52'27414.4
2015-Mar-26 08:24N 24°26' E 118°02'0 0.0
2015-Mar-26 07:24N 24°26' E 118°02'0 0.0
2015-Mar-26 04:24N 24°26' E 118°02'0 0.0
2015-Mar-26 02:30N 24°26' E 118°02'0 0.0
2015-Mar-26 01:18N 24°26' E 118°02'0 0.0
2015-Mar-26 00:33N 24°26' E 118°02'8 7.7
2015-Mar-25 23:32N 24°21' E 118°09'1010.7
2015-Mar-25 22:33N 24°14' E 118°17'1312.9
2015-Mar-25 21:32N 24°16' E 118°31'1414.4
2015-Mar-25 20:33N 24°22' E 118°45'1715.4
2015-Mar-25 19:27N 24°30' E 119°01'1514.8
2015-Mar-25 18:28N 24°36' E 119°16'39314.4
2015-Mar-24 15:11N 30°31' E 122°26'914.2
2015-Mar-24 14:33N 30°33' E 122°16'1111.3
2015-Mar-24 13:33N 30°37' E 122°03'1 0.8
2015-Mar-24 12:28N 30°38' E 122°03'0 0.0
2015-Mar-24 11:31N 30°38' E 122°03'0 0.0
2015-Mar-24 10:31N 30°38' E 122°03'0 0.0
2015-Mar-24 09:31N 30°38' E 122°03'0 0.0
2015-Mar-24 08:31N 30°38' E 122°03'0 0.0
2015-Mar-24 07:31N 30°38' E 122°03'0 0.0
2015-Mar-24 06:28N 30°38' E 122°03'0 0.0
2015-Mar-24 05:31N 30°38' E 122°03'0 0.3
2015-Mar-24 04:28N 30°38' E 122°03'7 7.8
2015-Mar-24 03:33N 30°34' E 122°10'9 9.0
2015-Mar-24 02:33N 30°33' E 122°20'1211.9
2015-Mar-24 01:33N 30°31' E 122°34'15 0.8
2015-Mar-23 05:20N 30°23' E 122°49'0 0.0
2015-Mar-23 03:29N 30°23' E 122°49'0 0.0
2015-Mar-23 01:32N 30°23' E 122°49'0 0.1
2015-Mar-22 23:16N 30°23' E 122°49'0 0.0
2015-Mar-22 22:10N 30°23' E 122°49'0 0.0
2015-Mar-22 21:26N 30°23' E 122°49'0 0.0
2015-Mar-22 20:26N 30°23' E 122°49'0 0.0
2015-Mar-22 19:29N 30°23' E 122°49'0 0.1
2015-Mar-22 17:29N 30°23' E 122°49'0 0.0
2015-Mar-22 16:11N 30°23' E 122°49'0 0.0
2015-Mar-22 15:26N 30°23' E 122°49'0 0.0
2015-Mar-22 14:20N 30°23' E 122°49'0 0.1
2015-Mar-22 13:05N 30°23' E 122°49'0 0.1
2015-Mar-22 12:32N 30°23' E 122°49'0 0.1
2015-Mar-22 11:32N 30°23' E 122°49'0 0.1
2015-Mar-22 10:31N 30°23' E 122°49'0 0.0
2015-Mar-22 09:10N 30°23' E 122°49'0 0.0
2015-Mar-22 08:31N 30°23' E 122°49'0 0.0
2015-Mar-22 07:16N 30°23' E 122°49'0 0.0
2015-Mar-22 06:10N 30°23' E 122°49'0 0.1
2015-Mar-22 04:31N 30°23' E 122°49'0 0.0
2015-Mar-22 00:13N 30°23' E 122°49'0 0.1
2015-Mar-21 23:28N 30°23' E 122°49'0 0.0
2015-Mar-21 22:25N 30°23' E 122°49'2 1.9
2015-Mar-21 21:32N 30°22' E 122°51'1211.8
2015-Mar-21 20:33N 30°14' E 123°00'2511.9
2015-Mar-21 18:26N 29°51' E 122°49'1415.4
2015-Mar-21 17:33N 29°42' E 122°37'1515.3
2015-Mar-21 16:33N 29°45' E 122°19'1212.1
2015-Mar-21 15:33N 29°54' E 122°10'7 5.5
2015-Mar-21 14:22N 29°53' E 122°03'0 0.0
2015-Mar-21 13:28N 29°53' E 122°03'0 0.0
2015-Mar-21 12:31N 29°53' E 122°03'0 0.0
2015-Mar-21 11:25N 29°53' E 122°03'0 0.0
2015-Mar-21 09:31N 29°53' E 122°03'0 0.0
2015-Mar-21 08:07N 29°53' E 122°03'0 0.0
2015-Mar-21 07:19N 29°53' E 122°03'0 0.0
2015-Mar-21 06:16N 29°53' E 122°03'0 0.0
2015-Mar-21 05:22N 29°53' E 122°03'0 0.0
2015-Mar-21 04:25N 29°53' E 122°03'  
Track history (hours):
 
Tides and Currents Weather Stations Pressure Air Temp Water Temp Dewpoint Dewpoint Depression Visibility Wind Speed Wind Dir Waves Ship Positions

MSC Flavia

Last reported at 2015-Mar-31 01:33 UTC. Time now 2015-Mar-31 02:09 UTC.
Position N 29°43' E 122°37'.

Length 366 m; draft 9 m.

Type: Ship (hazmat cat A). MMSI: 373004000.

Date/timePositionNaut miles runAvg speedWind from/ knotsBaromVisibWave heightAir tempDewpointWater temp
2015-Mar-31 01:33N 29°43' E 122°37'5 4.8
2015-Mar-31 00:33N 29°43' E 122°43'25212.5
2015-Mar-30 04:26N 25°44' E 121°13'2016.7
2015-Mar-30 03:15N 25°28' E 121°00'1920.4
2015-Mar-30 02:21N 25°12' E 120°48'3720.1
2015-Mar-30 00:31N 24°43' E 120°25'4619.6
2015-Mar-29 22:08N 24°05' E 119°55'4021.4
2015-Mar-29 20:16N 23°25' E 119°51'1420.1
2015-Mar-29 19:33N 23°11' E 119°47'16918.8
2015-Mar-29 10:33N 22°06' E 116°57'17317.2
2015-Mar-29 00:30N 22°05' E 113°51'1112.2
2015-Mar-28 23:33N 22°16' E 113°48'1211.7
2015-Mar-28 22:33N 22°27' E 113°52'1 0.9
2015-Mar-28 21:28N 22°28' E 113°53'0 0.0
2015-Mar-28 20:28N 22°28' E 113°53'0 0.0
2015-Mar-28 19:28N 22°28' E 113°53'0 0.0
2015-Mar-28 18:28N 22°28' E 113°53'0 0.0
2015-Mar-28 17:22N 22°28' E 113°53'0 0.0
2015-Mar-28 16:28N 22°28' E 113°53'0 0.0
2015-Mar-28 15:28N 22°28' E 113°53'0 0.0
2015-Mar-28 14:28N 22°28' E 113°53'0 0.0
2015-Mar-28 13:28N 22°28' E 113°53'0 0.0
2015-Mar-28 12:28N 22°28' E 113°53'0 0.0
2015-Mar-28 11:28N 22°28' E 113°53'0 0.0
2015-Mar-28 10:22N 22°28' E 113°53'0 0.0
2015-Mar-28 09:28N 22°28' E 113°53'0 0.0
2015-Mar-28 08:28N 22°28' E 113°53'0 0.0
2015-Mar-28 07:28N 22°28' E 113°53'0 0.0
2015-Mar-28 06:28N 22°28' E 113°53'0 0.0
2015-Mar-28 05:28N 22°28' E 113°53'0 0.0
2015-Mar-28 03:28N 22°28' E 113°53'0 0.0
2015-Mar-28 02:33N 22°28' E 113°53'5 5.1
2015-Mar-28 01:33N 22°23' E 113°50'10 9.8
2015-Mar-28 00:33N 22°13' E 113°49'5 2.3
2015-Mar-27 22:33N 22°09' E 113°50'1212.4
2015-Mar-27 21:34N 22°21' E 113°48'1413.4
2015-Mar-27 20:33N 22°34' E 113°43'5 0.4
2015-Mar-27 07:26N 22°38' E 113°41'9 8.8
2015-Mar-27 06:28N 22°30' E 113°45'1213.3
2015-Mar-27 05:33N 22°18' E 113°48'1212.3
2015-Mar-27 04:33N 22°06' E 113°51'9 7.9
2015-Mar-27 03:25N 21°58' E 113°52'27414.4
2015-Mar-26 08:24N 24°26' E 118°02'0 0.0
2015-Mar-26 07:24N 24°26' E 118°02'0 0.0
2015-Mar-26 04:24N 24°26' E 118°02'0 0.0
2015-Mar-26 02:30N 24°26' E 118°02'0 0.0
2015-Mar-26 01:18N 24°26' E 118°02'0 0.0
2015-Mar-26 00:33N 24°26' E 118°02'8 7.7
2015-Mar-25 23:32N 24°21' E 118°09'1010.7
2015-Mar-25 22:33N 24°14' E 118°17'1312.9
2015-Mar-25 21:32N 24°16' E 118°31'1414.4
2015-Mar-25 20:33N 24°22' E 118°45'1715.4
2015-Mar-25 19:27N 24°30' E 119°01'1514.8
2015-Mar-25 18:28N 24°36' E 119°16'39314.4
2015-Mar-24 15:11N 30°31' E 122°26'914.2
2015-Mar-24 14:33N 30°33' E 122°16'1111.3
2015-Mar-24 13:33N 30°37' E 122°03'1 0.8
2015-Mar-24 12:28N 30°38' E 122°03'0 0.0
2015-Mar-24 11:31N 30°38' E 122°03'0 0.0
2015-Mar-24 10:31N 30°38' E 122°03'0 0.0
2015-Mar-24 09:31N 30°38' E 122°03'0 0.0
2015-Mar-24 08:31N 30°38' E 122°03'0 0.0
2015-Mar-24 07:31N 30°38' E 122°03'0 0.0
2015-Mar-24 06:28N 30°38' E 122°03'0 0.0
2015-Mar-24 05:31N 30°38' E 122°03'0 0.3
2015-Mar-24 04:28N 30°38' E 122°03'7 7.8
2015-Mar-24 03:33N 30°34' E 122°10'9 9.0
2015-Mar-24 02:33N 30°33' E 122°20'1211.9
2015-Mar-24 01:33N 30°31' E 122°34'15 0.8
2015-Mar-23 05:20N 30°23' E 122°49'0 0.0
2015-Mar-23 03:29N 30°23' E 122°49'0 0.0
2015-Mar-23 01:32N 30°23' E 122°49'0 0.1
2015-Mar-22 23:16N 30°23' E 122°49'0 0.0
2015-Mar-22 22:10N 30°23' E 122°49'0 0.0
2015-Mar-22 21:26N 30°23' E 122°49'0 0.0
2015-Mar-22 20:26N 30°23' E 122°49'0 0.0
2015-Mar-22 19:29N 30°23' E 122°49'0 0.1
2015-Mar-22 17:29N 30°23' E 122°49'0 0.0
2015-Mar-22 16:11N 30°23' E 122°49'0 0.0
2015-Mar-22 15:26N 30°23' E 122°49'0 0.0
2015-Mar-22 14:20N 30°23' E 122°49'0 0.1
2015-Mar-22 13:05N 30°23' E 122°49'0 0.1
2015-Mar-22 12:32N 30°23' E 122°49'0 0.1
2015-Mar-22 11:32N 30°23' E 122°49'0 0.1
2015-Mar-22 10:31N 30°23' E 122°49'0 0.0
2015-Mar-22 09:10N 30°23' E 122°49'0 0.0
2015-Mar-22 08:31N 30°23' E 122°49'0 0.0
2015-Mar-22 07:16N 30°23' E 122°49'0 0.0
2015-Mar-22 06:10N 30°23' E 122°49'0 0.1
2015-Mar-22 04:31N 30°23' E 122°49'0 0.0
2015-Mar-22 00:13N 30°23' E 122°49'0 0.1
2015-Mar-21 23:28N 30°23' E 122°49'0 0.0
2015-Mar-21 22:25N 30°23' E 122°49'2 1.9
2015-Mar-21 21:32N 30°22' E 122°51'1211.8
2015-Mar-21 20:33N 30°14' E 123°00'2511.9
2015-Mar-21 18:26N 29°51' E 122°49'1415.4
2015-Mar-21 17:33N 29°42' E 122°37'1515.3
2015-Mar-21 16:33N 29°45' E 122°19'1212.1
2015-Mar-21 15:33N 29°54' E 122°10'7 5.5
2015-Mar-21 14:22N 29°53' E 122°03'0 0.0
2015-Mar-21 13:28N 29°53' E 122°03'0 0.0
2015-Mar-21 12:31N 29°53' E 122°03'0 0.0
2015-Mar-21 11:25N 29°53' E 122°03'0 0.0
2015-Mar-21 09:31N 29°53' E 122°03'0 0.0
2015-Mar-21 08:07N 29°53' E 122°03'0 0.0
2015-Mar-21 07:19N 29°53' E 122°03'0 0.0
2015-Mar-21 06:16N 29°53' E 122°03'0 0.0
2015-Mar-21 05:22N 29°53' E 122°03'0 0.0
2015-Mar-21 04:25N 29°53' E 122°03'  

Dump ship's entire track history